Terminal Aerodrome Forecast
Issued by NWS

Home | Current Version | Previous Version | Text Only | Print | Product List | Glossary On
Versions: 1 2 3 4 5 6 7 8 9 10 11 12 13 14 15 16 17 18 19 20 21 22 23 24 25 26 27 28 29 30 31 32 33 34 35 36 37 38 39 40
000
FTUS45 KBOU 070832 AAA
TAFBJC
TAF AMD
KBJC 070832Z 0709/0806 08006KT 3SM -SN BKN015 OVC025
     FM071100 01006KT 2SM -SN BKN007 OVC014
      TEMPO 0711/0714 1/2SM SN FZFG OVC005
     FM071400 36010KT 5SM -SN BKN010 OVC015
     FM071700 36008KT P6SM BKN015 OVC030
     FM072100 34008KT P6SM SCT040 BKN060
     FM080200 VRB06KT P6SM FEW050=

USA.gov is the U.S. government's official web portal to all federal, state and local government web resources and services.